createdAt,value
2017-08-25T00:01:13.115Z,99.80
2017-08-25T00:03:40.628Z,99.90
2017-08-25T00:06:08.140Z,99.90
2017-08-25T00:08:35.704Z,99.80
2017-08-25T00:11:03.224Z,99.60
2017-08-25T00:13:30.753Z,99.50
2017-08-25T00:15:58.329Z,99.40
2017-08-25T00:18:25.850Z,99.20
2017-08-25T00:20:53.463Z,98.80
2017-08-25T00:23:21.765Z,99.30
2017-08-25T00:25:49.277Z,99.30
2017-08-25T00:28:16.837Z,99.30
2017-08-25T00:30:44.389Z,99.50
2017-08-25T00:33:11.933Z,99.10
2017-08-25T00:35:39.516Z,99.40
2017-08-25T00:38:07.060Z,99.60
2017-08-25T00:40:34.608Z,99.40
2017-08-25T00:43:02.157Z,99.70
2017-08-25T00:45:29.666Z,99.40
2017-08-25T00:47:57.221Z,99.40
2017-08-25T00:50:24.737Z,99.30
2017-08-25T00:52:52.276Z,99.40
2017-08-25T00:55:19.830Z,99.60
2017-08-25T00:57:47.381Z,99.70
2017-08-25T01:00:14.938Z,99.30
2017-08-25T01:02:42.453Z,99.20
2017-08-25T01:05:09.984Z,99.30
2017-08-25T01:07:37.524Z,99.30
2017-08-25T01:10:05.044Z,99.30
2017-08-25T01:12:32.591Z,99.30
2017-08-25T01:15:00.123Z,99.40
2017-08-25T01:17:27.636Z,99.00
2017-08-25T01:19:55.175Z,99.40
2017-08-25T01:22:22.693Z,99.30
2017-08-25T01:24:50.293Z,99.00
2017-08-25T01:27:17.808Z,99.20
2017-08-25T01:29:45.320Z,99.40
2017-08-25T01:32:12.880Z,99.10
2017-08-25T01:34:40.392Z,99.40
2017-08-25T01:37:07.982Z,99.10
2017-08-25T01:39:35.496Z,99.90
2017-08-25T01:42:03.044Z,99.80
2017-08-25T01:44:30.620Z,99.40
2017-08-25T01:46:58.141Z,99.40
2017-08-25T01:49:25.654Z,98.80
2017-08-25T01:51:53.199Z,99.20
2017-08-25T01:54:20.726Z,99.10
2017-08-25T01:56:48.283Z,99.30
2017-08-25T01:59:15.796Z,99.50
2017-08-25T02:01:43.308Z,99.30
2017-08-25T02:04:10.860Z,98.90
2017-08-25T02:06:38.365Z,98.50
2017-08-25T02:09:05.909Z,98.60
2017-08-25T02:11:33.422Z,98.80
2017-08-25T02:14:00.995Z,98.80
2017-08-25T02:16:28.767Z,98.30
2017-08-25T02:18:56.283Z,99.30
2017-08-25T02:21:23.835Z,99.50
2017-08-25T02:23:51.360Z,99.20
2017-08-25T02:26:18.949Z,98.90
2017-08-25T02:28:46.459Z,98.70
2017-08-25T02:31:13.976Z,99.20
2017-08-25T02:33:41.500Z,99.50
2017-08-25T02:36:09.013Z,99.50
2017-08-25T02:38:36.535Z,99.60
2017-08-25T02:41:04.044Z,99.40
2017-08-25T02:43:31.588Z,99.40
2017-08-25T02:45:59.101Z,99.50
2017-08-25T02:48:26.679Z,99.40
2017-08-25T02:50:54.204Z,99.10
2017-08-25T02:53:21.740Z,99.00
2017-08-25T02:55:49.284Z,99.10
2017-08-25T02:58:16.816Z,98.90
2017-08-25T03:00:44.333Z,99.00
2017-08-25T03:03:11.871Z,99.20
2017-08-25T03:05:39.385Z,99.20
2017-08-25T03:08:06.919Z,99.50
2017-08-25T03:10:34.469Z,99.60
2017-08-25T03:13:01.992Z,99.50
2017-08-25T03:15:29.547Z,99.30
2017-08-25T03:17:57.073Z,99.40
2017-08-25T03:20:24.632Z,99.30
2017-08-25T03:22:52.163Z,99.80
2017-08-25T03:25:19.668Z,99.90
2017-08-25T03:27:47.194Z,99.90
2017-08-25T03:30:14.701Z,99.90
2017-08-25T03:32:42.258Z,99.90
2017-08-25T03:35:09.767Z,99.90
2017-08-25T03:37:37.333Z,99.90
2017-08-25T03:40:04.860Z,99.90
2017-08-25T03:42:32.373Z,99.90
2017-08-25T03:44:59.936Z,99.90
2017-08-25T03:47:27.454Z,99.90
2017-08-25T03:49:54.992Z,99.90
2017-08-25T03:52:22.563Z,99.90
2017-08-25T03:54:50.101Z,99.90
2017-08-25T03:57:17.644Z,99.90
2017-08-25T03:59:45.196Z,99.90
2017-08-25T04:02:12.712Z,99.60
2017-08-25T04:04:40.274Z,99.90
2017-08-25T04:07:07.793Z,99.90
2017-08-25T04:09:35.356Z,99.90
2017-08-25T04:12:02.893Z,99.90
2017-08-25T04:14:30.416Z,99.90
2017-08-25T04:16:58.179Z,99.90
2017-08-25T04:19:25.736Z,99.90
2017-08-25T04:21:53.300Z,99.90
2017-08-25T04:24:20.828Z,99.90
2017-08-25T04:26:48.414Z,99.90
2017-08-25T04:29:15.934Z,99.90
2017-08-25T04:31:44.268Z,99.90
2017-08-25T04:34:11.815Z,99.90
2017-08-25T04:36:39.338Z,99.80
2017-08-25T04:39:07.671Z,99.60
2017-08-25T04:41:35.188Z,99.50
2017-08-25T04:44:02.696Z,99.60
2017-08-25T04:46:30.523Z,99.80
2017-08-25T04:48:58.043Z,99.90
2017-08-25T04:51:25.553Z,99.70
2017-08-25T04:53:53.112Z,99.70
2017-08-25T04:56:20.620Z,99.50
2017-08-25T04:58:48.235Z,99.30
2017-08-25T05:01:15.760Z,99.70
2017-08-25T05:03:43.495Z,99.90
2017-08-25T05:06:11.043Z,99.70
2017-08-25T05:08:38.612Z,99.20
2017-08-25T05:11:06.150Z,99.10
2017-08-25T05:13:33.708Z,98.60
2017-08-25T05:16:01.220Z,98.40
2017-08-25T05:18:28.789Z,98.20
2017-08-25T05:20:56.310Z,98.00
2017-08-25T05:23:23.857Z,97.80
2017-08-25T05:25:51.451Z,97.80
2017-08-25T05:28:19.013Z,97.50
2017-08-25T05:30:46.524Z,97.40
2017-08-25T05:33:14.054Z,97.20
2017-08-25T05:35:41.579Z,97.00
2017-08-25T05:38:09.102Z,96.90
2017-08-25T05:40:36.698Z,96.90
2017-08-25T05:43:04.260Z,96.90
2017-08-25T05:45:31.808Z,96.70
2017-08-25T05:47:59.353Z,96.50
2017-08-25T05:50:26.961Z,96.60
2017-08-25T05:52:54.504Z,96.90
2017-08-25T05:55:22.089Z,96.80
2017-08-25T05:57:49.639Z,96.70
2017-08-25T06:00:17.213Z,96.30
2017-08-25T06:02:44.780Z,95.90
2017-08-25T06:05:12.324Z,95.80
2017-08-25T06:07:39.897Z,95.60
2017-08-25T06:10:07.431Z,95.70
2017-08-25T06:12:34.946Z,95.60
2017-08-25T06:15:02.538Z,94.90
2017-08-25T06:17:30.088Z,94.70
2017-08-25T06:19:57.603Z,94.20
2017-08-25T06:22:25.144Z,94.20
2017-08-25T06:24:52.663Z,94.50
2017-08-25T06:27:20.218Z,94.80
2017-08-25T06:29:47.793Z,93.60
2017-08-25T06:32:15.324Z,94.00
2017-08-25T06:34:42.875Z,93.80
2017-08-25T06:37:10.408Z,93.90
2017-08-25T06:39:37.927Z,94.20
2017-08-25T06:42:05.478Z,94.50
2017-08-25T06:44:33.024Z,94.20
2017-08-25T06:47:00.583Z,93.90
2017-08-25T06:49:28.113Z,93.90
2017-08-25T06:51:55.631Z,94.60
2017-08-25T06:54:23.195Z,93.60
2017-08-25T06:56:50.715Z,93.20
2017-08-25T06:59:18.432Z,93.80
2017-08-25T07:01:45.983Z,94.00
2017-08-25T07:04:13.532Z,93.90
2017-08-25T07:06:41.069Z,93.30
2017-08-25T07:09:08.579Z,92.90
2017-08-25T07:11:36.135Z,93.30
2017-08-25T07:14:03.643Z,92.30
2017-08-25T07:16:31.152Z,92.70
2017-08-25T07:18:58.683Z,92.60
2017-08-25T07:21:26.204Z,91.80
2017-08-25T07:23:53.763Z,92.40
2017-08-25T07:26:21.276Z,91.50
2017-08-25T07:28:48.839Z,91.90
2017-08-25T07:31:16.360Z,92.50
2017-08-25T07:33:43.879Z,91.50
2017-08-25T07:36:11.452Z,91.10
2017-08-25T07:38:38.959Z,91.10
2017-08-25T07:41:06.544Z,90.70
2017-08-25T07:43:34.063Z,91.20
2017-08-25T07:46:01.632Z,88.10
2017-08-25T07:48:29.136Z,86.50
2017-08-25T07:50:56.659Z,85.80
2017-08-25T07:53:24.192Z,81.70
2017-08-25T07:55:51.759Z,81.40
2017-08-25T07:58:19.353Z,81.20
2017-08-25T08:00:46.896Z,80.80
2017-08-25T08:03:14.478Z,81.30
2017-08-25T08:05:42.004Z,82.20
2017-08-25T08:08:09.533Z,82.60
2017-08-25T08:10:37.101Z,82.90
2017-08-25T08:13:04.725Z,86.30
2017-08-25T08:15:32.233Z,88.00
2017-08-25T08:17:59.831Z,83.80
2017-08-25T08:20:27.352Z,84.30
2017-08-25T08:22:54.867Z,83.20
2017-08-25T08:25:22.418Z,82.80
2017-08-25T08:27:49.982Z,81.70
2017-08-25T08:30:22.097Z,83.60
2017-08-25T08:32:49.625Z,81.30
2017-08-25T08:35:17.132Z,82.30
2017-08-25T08:37:44.712Z,80.20
2017-08-25T08:40:12.243Z,79.70
2017-08-25T08:42:39.776Z,78.00
2017-08-25T08:45:07.648Z,76.70
2017-08-25T08:47:35.217Z,76.10
2017-08-25T08:50:02.736Z,76.60
2017-08-25T08:52:30.240Z,77.30
2017-08-25T08:54:57.807Z,76.10
2017-08-25T08:57:25.366Z,79.10
2017-08-25T08:59:52.900Z,73.80
2017-08-25T09:02:20.464Z,73.80
2017-08-25T09:04:48.015Z,78.20
2017-08-25T09:07:15.519Z,77.80
2017-08-25T09:09:43.079Z,78.80
2017-08-25T09:12:10.595Z,76.40
2017-08-25T09:14:38.115Z,69.70
2017-08-25T09:17:05.644Z,72.00
2017-08-25T09:19:33.247Z,72.90
2017-08-25T09:22:00.755Z,72.40
2017-08-25T09:24:28.304Z,71.50
2017-08-25T09:26:55.840Z,66.70
2017-08-25T09:29:23.377Z,66.90
2017-08-25T09:31:50.902Z,71.00
2017-08-25T09:34:18.448Z,67.30
2017-08-25T09:36:46.010Z,65.90
2017-08-25T09:39:13.535Z,70.30
2017-08-25T09:41:41.088Z,69.40
2017-08-25T09:44:08.603Z,67.50
2017-08-25T09:46:36.135Z,67.80
2017-08-25T09:49:03.679Z,67.60
2017-08-25T09:51:31.204Z,70.40
2017-08-25T09:53:58.824Z,68.40
2017-08-25T09:56:26.343Z,69.30
2017-08-25T09:58:54.065Z,67.40
2017-08-25T10:01:21.596Z,66.30
2017-08-25T10:03:49.107Z,62.40
2017-08-25T10:06:16.691Z,59.10
2017-08-25T10:08:44.232Z,57.80
2017-08-25T10:11:11.823Z,58.80
2017-08-25T10:13:39.355Z,57.00
2017-08-25T10:16:06.887Z,59.70
2017-08-25T10:18:34.436Z,62.80
2017-08-25T10:21:01.947Z,57.90
2017-08-25T10:23:29.503Z,59.70
2017-08-25T10:25:57.039Z,57.90
2017-08-25T10:28:24.614Z,55.90
2017-08-25T10:30:52.149Z,56.20
2017-08-25T10:33:31.587Z,58.60
2017-08-25T10:36:11.119Z,57.00
2017-08-25T10:38:50.508Z,55.10
2017-08-25T10:44:26.355Z,57.70
2017-08-25T10:46:53.883Z,58.70
2017-08-25T10:49:21.388Z,58.30
2017-08-25T10:51:49.087Z,56.30
2017-08-25T10:54:16.621Z,58.50
2017-08-25T10:56:44.152Z,57.60
2017-08-25T10:59:11.687Z,57.70
2017-08-25T11:01:39.195Z,58.00
2017-08-25T11:04:06.727Z,56.40
2017-08-25T11:06:34.232Z,57.00
2017-08-25T11:09:01.836Z,56.30
2017-08-25T11:11:29.401Z,54.50
2017-08-25T11:13:56.963Z,54.30
2017-08-25T11:16:24.514Z,54.80
2017-08-25T11:18:52.036Z,54.70
2017-08-25T11:21:19.555Z,57.80
2017-08-25T11:23:47.216Z,54.40
2017-08-25T11:26:14.764Z,56.60
2017-08-25T11:28:42.311Z,55.40
2017-08-25T11:31:09.847Z,53.70
2017-08-25T11:33:37.355Z,54.20
2017-08-25T11:36:04.959Z,52.10
2017-08-25T11:38:32.471Z,53.50
2017-08-25T11:41:00.019Z,54.60
2017-08-25T11:43:27.579Z,52.50
2017-08-25T11:45:55.228Z,52.40
2017-08-25T11:48:22.768Z,51.70
2017-08-25T11:50:50.336Z,52.30
2017-08-25T11:53:17.992Z,51.60
2017-08-25T11:55:45.519Z,53.90
2017-08-25T11:58:13.125Z,53.90
2017-08-25T12:00:40.633Z,54.40
2017-08-25T12:03:08.176Z,53.70
2017-08-25T12:05:35.727Z,54.00
2017-08-25T12:08:03.240Z,52.20
2017-08-25T12:10:30.792Z,51.20
2017-08-25T12:12:58.301Z,48.60
2017-08-25T12:15:25.844Z,53.00
2017-08-25T12:17:53.373Z,53.80
2017-08-25T12:20:20.882Z,52.90
2017-08-25T12:22:48.455Z,52.60
2017-08-25T12:25:16.043Z,53.90
2017-08-25T12:27:43.583Z,53.20
2017-08-25T12:30:11.087Z,51.10
2017-08-25T12:32:38.647Z,50.20
2017-08-25T12:35:06.171Z,50.40
2017-08-25T12:37:33.735Z,50.90
2017-08-25T12:40:01.261Z,52.20
2017-08-25T12:42:28.835Z,50.50
2017-08-25T12:44:56.348Z,52.00
2017-08-25T12:47:23.864Z,50.70
2017-08-25T12:49:51.424Z,49.90
2017-08-25T12:52:18.964Z,50.90
2017-08-25T12:54:46.476Z,50.50
2017-08-25T12:57:14.010Z,51.40
2017-08-25T12:59:41.520Z,51.30
2017-08-25T13:02:09.099Z,53.50
2017-08-25T13:04:36.618Z,52.60
2017-08-25T13:07:04.159Z,53.10
2017-08-25T13:09:31.715Z,51.60
2017-08-25T13:11:59.288Z,55.50
2017-08-25T13:14:26.885Z,55.50
2017-08-25T13:16:54.400Z,55.10
2017-08-25T13:19:21.904Z,55.20
2017-08-25T13:21:49.529Z,56.40
2017-08-25T13:24:17.040Z,56.30
2017-08-25T13:26:44.576Z,56.50
2017-08-25T13:29:12.087Z,56.20
2017-08-25T13:31:39.741Z,56.50
2017-08-25T13:34:07.269Z,56.10
2017-08-25T13:36:34.804Z,52.50
2017-08-25T13:39:02.331Z,56.50
2017-08-25T13:41:29.855Z,58.30
2017-08-25T13:43:57.380Z,56.80
2017-08-25T13:46:24.936Z,56.60
2017-08-25T13:48:52.447Z,56.50
2017-08-25T13:51:19.976Z,54.60
2017-08-25T13:53:47.622Z,57.10
2017-08-25T13:56:15.360Z,56.30
2017-08-25T13:58:42.936Z,58.10
2017-08-25T14:01:10.559Z,59.40
2017-08-25T14:03:38.072Z,58.40
2017-08-25T14:06:05.758Z,59.10
2017-08-25T14:08:33.378Z,57.40
2017-08-25T14:11:01.051Z,60.10
2017-08-25T14:13:28.604Z,58.40
2017-08-25T14:15:56.115Z,59.90
2017-08-25T14:18:23.654Z,60.30
2017-08-25T14:20:51.204Z,57.50
2017-08-25T14:23:18.715Z,56.30
2017-08-25T14:25:46.267Z,57.50
2017-08-25T14:28:13.784Z,57.20
2017-08-25T14:30:41.398Z,57.00
2017-08-25T14:33:08.911Z,58.80
2017-08-25T14:35:36.467Z,60.70
2017-08-25T14:38:03.995Z,61.00
2017-08-25T14:40:31.553Z,60.60
2017-08-25T14:42:59.124Z,60.70
2017-08-25T14:45:26.670Z,59.60
2017-08-25T14:47:54.187Z,59.70
2017-08-25T14:50:21.743Z,58.50
2017-08-25T14:52:49.268Z,61.40
2017-08-25T14:55:16.840Z,60.20
2017-08-25T14:57:44.355Z,60.50
2017-08-25T15:00:11.957Z,60.60
2017-08-25T15:02:39.486Z,61.30
2017-08-25T15:05:07.015Z,62.00
2017-08-25T15:07:34.571Z,62.60
2017-08-25T15:10:02.080Z,61.60
2017-08-25T15:12:29.624Z,60.20
2017-08-25T15:14:57.153Z,59.80
2017-08-25T15:17:24.721Z,60.70
2017-08-25T15:19:52.257Z,60.40
2017-08-25T15:22:19.800Z,61.20
2017-08-25T15:24:47.332Z,61.50
2017-08-25T15:27:14.852Z,59.40
2017-08-25T15:29:42.383Z,61.50
2017-08-25T15:32:09.968Z,62.20
2017-08-25T15:34:37.576Z,61.30
2017-08-25T15:37:05.088Z,61.30
2017-08-25T15:39:32.639Z,57.40
2017-08-25T15:42:00.185Z,58.60
2017-08-25T15:44:27.716Z,58.00
2017-08-25T15:46:55.262Z,58.20
2017-08-25T15:49:22.780Z,59.00
2017-08-25T15:51:50.322Z,60.20
2017-08-25T15:54:17.851Z,59.70
2017-08-25T15:56:45.406Z,61.60
2017-08-25T15:59:12.957Z,63.40
2017-08-25T16:01:40.463Z,59.30
2017-08-25T16:04:08.027Z,58.70
2017-08-25T16:06:35.536Z,57.90
2017-08-25T16:09:03.044Z,56.60
2017-08-25T16:11:30.581Z,58.00
2017-08-25T16:13:58.097Z,62.60
2017-08-25T16:16:25.651Z,62.00
2017-08-25T16:18:53.259Z,59.10
2017-08-25T16:21:21.022Z,58.90
2017-08-25T16:23:50.808Z,58.30
2017-08-25T16:26:35.699Z,58.80
2017-08-25T16:29:08.672Z,59.10
2017-08-25T16:31:36.759Z,58.90
2017-08-25T16:34:05.418Z,57.80
2017-08-25T16:36:33.025Z,58.20
2017-08-25T16:39:00.568Z,58.20
2017-08-25T16:41:28.127Z,57.30
2017-08-25T16:43:55.692Z,57.80
2017-08-25T16:46:23.272Z,72.00
2017-08-25T16:48:50.852Z,73.10
2017-08-25T16:51:18.360Z,75.00
2017-08-25T16:53:45.872Z,76.70
2017-08-25T16:56:13.519Z,77.20
2017-08-25T16:58:41.029Z,77.70
2017-08-25T17:01:09.069Z,78.30
2017-08-25T17:03:36.579Z,78.30
2017-08-25T17:06:04.142Z,78.00
2017-08-25T17:08:31.719Z,78.50
2017-08-25T17:10:59.242Z,81.00
2017-08-25T17:13:26.800Z,79.60
2017-08-25T17:15:54.373Z,80.20
2017-08-25T17:18:21.923Z,81.50
2017-08-25T17:20:49.501Z,82.30
2017-08-25T17:23:17.092Z,82.90
2017-08-25T17:25:44.608Z,82.50
2017-08-25T17:28:12.160Z,84.20
2017-08-25T17:30:39.667Z,84.40
2017-08-25T17:33:07.203Z,84.80
2017-08-25T17:35:34.720Z,85.60
2017-08-25T17:38:02.290Z,85.80
2017-08-25T17:40:29.818Z,86.60
2017-08-25T17:42:57.368Z,87.50
2017-08-25T17:45:24.908Z,88.80
2017-08-25T17:47:52.415Z,87.10
2017-08-25T17:50:19.967Z,89.20
2017-08-25T17:52:47.475Z,88.90
2017-08-25T17:55:14.991Z,89.60
2017-08-25T17:57:42.515Z,90.00
2017-08-25T18:00:10.080Z,90.40
2017-08-25T18:02:37.587Z,90.60
2017-08-25T18:05:05.101Z,90.50
2017-08-25T18:07:32.623Z,90.10
2017-08-25T18:10:00.132Z,90.40
2017-08-25T18:12:27.695Z,90.40
2017-08-25T18:14:55.272Z,90.70
2017-08-25T18:17:22.775Z,90.60
2017-08-25T18:19:50.346Z,90.20
2017-08-25T18:22:17.868Z,90.70
2017-08-25T18:24:45.382Z,91.10
2017-08-25T18:27:12.908Z,91.60
2017-08-25T18:29:40.415Z,92.10
2017-08-25T18:32:07.944Z,91.50
2017-08-25T18:34:35.448Z,91.30
2017-08-25T18:37:02.990Z,91.20
2017-08-25T18:39:30.495Z,91.60
2017-08-25T18:41:58.027Z,92.00
2017-08-25T18:44:25.553Z,92.70
2017-08-25T18:46:53.092Z,92.30
2017-08-25T18:49:20.656Z,92.40
2017-08-25T18:51:48.181Z,92.30
2017-08-25T18:54:15.693Z,92.30
2017-08-25T18:56:43.439Z,92.30
2017-08-25T18:59:10.951Z,92.10
2017-08-25T19:01:38.536Z,91.50
2017-08-25T19:04:06.048Z,90.90
2017-08-25T19:06:33.555Z,91.00
2017-08-25T19:09:01.133Z,90.70
2017-08-25T19:11:28.658Z,91.20
2017-08-25T19:13:56.215Z,91.20
2017-08-25T19:16:23.726Z,91.60
2017-08-25T19:18:51.240Z,91.70
2017-08-25T19:21:18.763Z,90.90
2017-08-25T19:23:46.276Z,90.50
2017-08-25T19:26:13.815Z,89.30
2017-08-25T19:28:41.371Z,88.50
2017-08-25T19:31:08.883Z,90.00
2017-08-25T19:33:36.428Z,88.30
2017-08-25T19:36:03.957Z,89.70
2017-08-25T19:38:31.480Z,90.00
2017-08-25T19:40:59.038Z,89.20
2017-08-25T19:43:26.556Z,90.00
2017-08-25T19:45:54.067Z,89.70
2017-08-25T19:48:21.605Z,90.30
2017-08-25T19:50:49.116Z,90.40
2017-08-25T19:53:16.651Z,88.50
2017-08-25T19:55:44.177Z,88.50
2017-08-25T19:58:11.744Z,88.90
2017-08-25T20:00:39.251Z,88.70
2017-08-25T20:03:06.759Z,88.80
2017-08-25T20:05:34.279Z,88.80
2017-08-25T20:08:01.788Z,88.00
2017-08-25T20:10:29.348Z,88.40
2017-08-25T20:12:56.885Z,88.60
2017-08-25T20:15:24.387Z,88.50
2017-08-25T20:17:51.913Z,89.70
2017-08-25T20:20:19.419Z,90.00
2017-08-25T20:22:46.967Z,89.20
2017-08-25T20:25:14.496Z,89.40
2017-08-25T20:27:42.051Z,89.90
2017-08-25T20:30:09.560Z,88.80
2017-08-25T20:32:37.072Z,88.50
2017-08-25T20:35:04.598Z,87.50
2017-08-25T20:37:32.112Z,87.20
2017-08-25T20:39:59.656Z,88.30
2017-08-25T20:42:27.188Z,88.70
2017-08-25T20:44:54.736Z,89.80
2017-08-25T20:47:22.292Z,90.50
2017-08-25T20:49:49.807Z,90.60
2017-08-25T20:52:17.404Z,90.40
2017-08-25T20:54:44.920Z,90.40
2017-08-25T20:57:12.427Z,91.30
2017-08-25T20:59:39.957Z,91.50
2017-08-25T21:02:07.467Z,91.80
2017-08-25T21:04:35.004Z,91.60
2017-08-25T21:07:02.532Z,92.40
2017-08-25T21:09:30.071Z,92.30
2017-08-25T21:11:57.584Z,92.50
2017-08-25T21:14:25.129Z,93.00
2017-08-25T21:16:52.659Z,93.00
2017-08-25T21:19:20.206Z,93.60
2017-08-25T21:21:47.721Z,93.70
2017-08-25T21:24:15.247Z,93.60
2017-08-25T21:26:42.795Z,94.10
2017-08-25T21:29:10.303Z,94.20
2017-08-25T21:31:37.845Z,94.20
2017-08-25T21:34:05.354Z,94.50
2017-08-25T21:36:33.255Z,94.70
2017-08-25T21:39:00.767Z,95.30
2017-08-25T21:41:28.316Z,95.50
2017-08-25T21:43:55.871Z,94.80
2017-08-25T21:46:23.387Z,95.10
2017-08-25T21:48:50.908Z,95.40
2017-08-25T21:51:18.440Z,95.30
2017-08-25T21:53:45.959Z,94.40
2017-08-25T21:56:13.512Z,94.90
2017-08-25T21:58:41.026Z,94.80
2017-08-25T22:01:08.579Z,95.20
2017-08-25T22:03:36.103Z,95.20
2017-08-25T22:06:03.617Z,95.50
2017-08-25T22:08:31.144Z,95.80
2017-08-25T22:10:58.652Z,95.40
2017-08-25T22:13:26.209Z,95.70
2017-08-25T22:15:53.723Z,96.30
2017-08-25T22:18:21.250Z,96.10
2017-08-25T22:20:48.775Z,96.30
2017-08-25T22:23:16.291Z,96.50
2017-08-25T22:25:43.837Z,96.10
2017-08-25T22:28:11.352Z,96.80
2017-08-25T22:30:38.898Z,96.30
2017-08-25T22:33:06.435Z,96.30
2017-08-25T22:35:33.957Z,95.70
2017-08-25T22:38:01.488Z,95.20
2017-08-25T22:40:29.011Z,95.00
2017-08-25T22:42:56.556Z,94.80
2017-08-25T22:45:24.106Z,95.40
2017-08-25T22:47:51.647Z,96.10
2017-08-25T22:50:19.164Z,95.70
2017-08-25T22:52:46.757Z,96.40
2017-08-25T22:55:14.373Z,96.80
2017-08-25T22:57:41.968Z,96.60
2017-08-25T23:00:09.535Z,96.70
2017-08-25T23:02:37.039Z,96.90
2017-08-25T23:05:04.588Z,96.60
2017-08-25T23:07:32.373Z,96.80
2017-08-25T23:10:00.048Z,97.10
2017-08-25T23:12:27.648Z,97.70
2017-08-25T23:14:55.158Z,97.50
2017-08-25T23:17:22.708Z,97.60
2017-08-25T23:19:50.239Z,97.90
2017-08-25T23:22:17.763Z,97.70
2017-08-25T23:24:45.333Z,97.70
2017-08-25T23:27:12.845Z,97.90
2017-08-25T23:29:40.380Z,98.20
2017-08-25T23:32:07.904Z,98.00
2017-08-25T23:34:35.420Z,97.90
2017-08-25T23:37:02.968Z,98.40
2017-08-25T23:39:30.543Z,98.00
2017-08-25T23:41:58.062Z,98.60
2017-08-25T23:44:25.592Z,98.20
2017-08-25T23:46:53.115Z,98.50
2017-08-25T23:49:20.627Z,98.70
2017-08-25T23:51:48.177Z,98.00
2017-08-25T23:54:15.748Z,97.60
2017-08-25T23:56:43.301Z,97.40
2017-08-25T23:59:10.882Z,97.10
